SBRB Informação do Aeroporto

Informação da Pista
Runway 6 Length 7080 ft width 148 ft
Elevation 0 ft Threshold 0 ft Heading 0
Runway 24 Length 7080 ft Width 148 ft
Elevation 0 ft Threshold 0 ft Heading 0
Frequencias do Aeroporto
Tipo APP Nome RIO BRANCO Frequência 119.9 MHZ
Tipo TWR Nome RIO BRANCO Frequência 118.7 MHZ
Navaids Aeroporto
Tipo VOR-DME Name Branco Frequência 114200 KHZ
Tipo NDB Name Branco Frequência 355 KHZ
Tempo do Aeroporto & NOTAM
ADDS - METARS form results

(1525 UTC 07 December 2019)
Data provider http://aviationweather.gov/metar/data/
 
METAR text: SBRB 071500Z VRB04KT 9999 SCT007 BKN017 29/24 Q1014
Conditions at: SBRB (RIO BRANCO/MEDIC, BR) observed 1500 UTC 07 December 2019
Temperature: 29.0°C (84°F)
Dewpoint: 24.0°C (75°F) [RH = 74%]
Pressure (altimeter): 29.94 inches Hg (1014.0 mb)
Winds: variable direction winds at 5 MPH (4 knots; 2.1 m/s)
Visibility: 6 or more miles (10+ km)
Ceiling: 1700 feet AGL
Clouds: scattered clouds at 700 feet AGL
broken clouds at 1700 feet AGL
Weather: no significant weather observed at this time

METAR text: SBRB 071438Z 28006KT 220V330 9999 SCT007 BKN015 28/23 Q1014
Conditions at: SBRB (RIO BRANCO/MEDIC, BR) observed 1438 UTC 07 December 2019
Temperature: 28.0°C (82°F)
Dewpoint: 23.0°C (73°F) [RH = 74%]
Pressure (altimeter): 29.94 inches Hg (1014.0 mb)
Winds: from the W (280 degrees) at 7 MPH (6 knots; 3.1 m/s)
Visibility: 6 or more miles (10+ km)
Ceiling: 1500 feet AGL
Clouds: scattered clouds at 700 feet AGL
broken clouds at 1500 feet AGL
Weather: no significant weather observed at this time

Forecast for: SBRB (RIO BRANCO/MEDIC, BR)
Text: TAF SBRB 071500Z 0718/0806 29005KT 9999 BKN010 TX30/0719Z TN23/0806Z
Forecast period: 1800 UTC 07 December 2019 to 0000 UTC 08 December 2019
Forecast type: FROM: standard forecast or significant change
Winds: from the WNW (290 degrees) at 6 MPH (5 knots; 2.6 m/s)
Visibility: 6 or more miles 10+ km)
Ceiling: 1000 feet AGL
Clouds: broken clouds at 1000 feet AGL
Weather: no significant weather forecast for this period
Text: PROB30
Forecast period: 2100 UTC 07 December 2019 to 0000 UTC 08 December 2019
Forecast type: TEMPORARY: The following changes expected for less than half the time period
Visibility: 2.49 miles (4.01 km)
Ceiling: 1000 feet AGL
Clouds: broken clouds at 1000 feet AGL
few clouds at 2500 feet AGL
Weather: TSRA  (rain associated with thunderstorm(s))
Text: TEMPO 0721/0724 4000 TSRA BKN010 FEW025CB
Forecast period: 0000 to 0600 UTC 08 December 2019
Forecast type: BECOMING: Conditions expected to become as follows by 0200 UTC 08 December 2019
Winds: from the NE (50 degrees) at 6 MPH (5 knots; 2.6 m/s)
Visibility: 6 or more miles 10+ km)
Ceiling: 800 feet AGL
Clouds: broken clouds at 800 feet AGL
Weather: no significant weather forecast for this period